Terminal Aerodrome Forecast
Issued by NWS

Current Version | Previous Version | Text Only | Print | Product List | Glossary On
Versions: 1 2 3 4 5 6 7 8 9 10 11 12 13
000
FTUS41 KLWX 221700
TAFMTN
TAF
KMTN 221720Z 2218/2318 19010G18KT P6SM FEW200
     FM230400 21007KT P6SM BKN090
     FM231100 21005KT P6SM SCT090=

USA.gov is the U.S. government's official web portal to all federal, state and local government web resources and services.